This is the latest recevied weather packets stored in our database for station/object OH2HCY-3. If no packets are shown the sender has not sent any weather packets the latest 10 day(s).
| Time | Temp. | Humidity | Pressure | Rain* | Wind** | Luminosity | Snow |
|---|---|---|---|---|---|---|---|
| 1777432643 | 0.56° C | 52% | 1025.2 hPa | - | - | - | - |
| 1777431504 | 0.56° C | 51% | 1025 hPa | - | - | - | - |
| 1777430429 | 0.56° C | 52% | 1024.8 hPa | - | - | - | - |
| 1777429415 | 1.11° C | 50% | 1024.6 hPa | - | - | - | - |
| 1777428265 | - | - | - | - | - | - | - |
| 1777428260 | 1.11° C | 50% | 1024.5 hPa | - | - | - | - |
| 1777427300 | 0.56° C | 51% | 1024.4 hPa | - | - | - | - |
| 1777426324 | 0.56° C | 50% | 1024.4 hPa | - | - | - | - |
| 1777425260 | 0.56° C | 53% | 1024.3 hPa | - | - | - | - |
| 1777424254 | 0° C | 53% | 1024.1 hPa | - | - | - | - |
| 1777423184 | -0.56° C | 56% | 1024.1 hPa | - | - | - | - |
| 1777422160 | -1.11° C | 57% | 1024 hPa | - | - | - | - |
| 1777421155 | -1.11° C | 57% | 1024 hPa | - | - | - | - |
| 1777420075 | -1.11° C | 56% | 1023.9 hPa | - | - | - | - |
| 1777419097 | -0.56° C | 55% | 1023.8 hPa | - | - | - | - |
| 1777419095 | -0.56° C | 55% | 1023.8 hPa | - | - | - | - |
| 1777418128 | -0.56° C | 55% | 1023.8 hPa | - | - | - | - |
| 1777416940 | 0° C | 54% | 1023.8 hPa | - | - | - | - |
| 1777416938 | 0° C | 54% | 1023.8 hPa | - | - | - | - |
| 1777415745 | 0.56° C | 51% | 1023.6 hPa | - | - | - | - |
| 1777414729 | - | - | - | - | - | - | - |
| 1777414725 | 0.56° C | 50% | 1023.6 hPa | - | - | - | - |
| 1777413622 | 1.11° C | 49% | 1023.5 hPa | - | - | - | - |
| 1777412507 | 1.67° C | 48% | 1023.4 hPa | - | - | - | - |
| 1777411527 | 2.22° C | 46% | 1023.4 hPa | - | - | - | - |
* Rain since midnight (hover to see other rain measurements)
** Current wind speed in m/s (hover to see current wind gust speed)